Time;durP1;ratioP1;P1;durP2;ratioP2;P2;SDS_P1;SDS_P2;PMS_P1;PMS_P2;Temp;Humidity;BMP_temperature;BMP_pressure;BME280_temperature;BME280_humidity;BME280_pressure;Samples;Min_cycle;Max_cycle;Signal;HPM_P1;HPM_P2
2023/09/21 00:00:10;;;;;;;2.97;1.00;;;21.00;99.90;;;;;;4956201;29;20584;-74
2023/09/21 00:02:38;;;;;;;3.43;1.10;;;21.00;99.90;;;;;;4955842;29;20627;-75
2023/09/21 00:05:05;;;;;;;1.60;0.80;;;21.00;99.90;;;;;;4955920;29;20632;-75
2023/09/21 00:07:31;;;;;;;2.63;0.97;;;21.00;99.90;;;;;;4955763;29;20666;-74
2023/09/21 00:09:57;;;;;;;3.70;1.10;;;20.90;99.90;;;;;;4955977;29;20588;-75
2023/09/21 00:12:22;;;;;;;2.20;1.20;;;21.00;99.90;;;;;;4954641;29;20602;-75
2023/09/21 00:14:48;;;;;;;2.90;1.10;;;20.90;99.90;;;;;;4954485;29;20631;-75
2023/09/21 00:17:14;;;;;;;2.63;1.13;;;20.90;99.90;;;;;;4955997;29;20244;-74
2023/09/21 00:19:40;;;;;;;4.80;1.43;;;20.90;99.90;;;;;;4955647;29;20641;-74
2023/09/21 00:22:06;;;;;;;2.10;0.90;;;20.90;99.90;;;;;;4938591;29;20188;-74
2023/09/21 00:24:32;;;;;;;5.20;1.10;;;20.90;99.90;;;;;;4937918;29;20657;-75
2023/09/21 00:26:58;;;;;;;2.90;0.90;;;20.80;99.90;;;;;;4938458;29;20168;-72
2023/09/21 00:29:24;;;;;;;1.87;0.80;;;20.80;99.90;;;;;;4955526;29;21186;-72
2023/09/21 00:31:49;;;;;;;2.50;1.60;;;20.80;99.90;;;;;;4922578;29;20679;-73
2023/09/21 00:34:18;;;;;;;3.33;1.50;;;20.80;99.90;;;;;;4938031;29;20188;-73
2023/09/21 00:36:47;;;;;;;2.10;1.57;;;20.80;99.90;;;;;;4955301;29;21029;-76
2023/09/21 00:39:13;;;;;;;2.47;0.97;;;20.80;99.90;;;;;;4955539;29;20647;-75
2023/09/21 00:41:39;;;;;;;2.93;1.30;;;20.80;99.90;;;;;;4938302;29;21103;-75
2023/09/21 00:44:07;;;;;;;2.23;1.10;;;20.70;99.90;;;;;;4954036;29;20219;-75
2023/09/21 00:46:35;;;;;;;1.80;1.00;;;20.80;99.90;;;;;;4937922;29;20180;-74
2023/09/21 00:49:04;;;;;;;6.20;1.70;;;20.80;99.90;;;;;;4954017;29;20980;-74
2023/09/21 00:51:32;;;;;;;2.47;1.00;;;20.80;99.90;;;;;;4945916;29;20595;-76
2023/09/21 00:54:00;;;;;;;1.87;1.00;;;20.80;99.90;;;;;;4953431;28;20654;-75
2023/09/21 00:56:28;;;;;;;2.13;1.07;;;20.80;99.90;;;;;;4937721;29;20634;-76
2023/09/21 00:58:57;;;;;;;2.70;1.13;;;20.70;99.90;;;;;;4937926;29;20591;-75
2023/09/21 01:01:31;;;;;;;2.00;0.90;;;20.80;99.90;;;;;;4950613;29;20623;-76
2023/09/21 01:04:01;;;;;;;2.07;1.00;;;20.70;99.90;;;;;;4945691;29;20635;-76
2023/09/21 01:06:28;;;;;;;2.07;1.20;;;20.70;99.90;;;;;;4939696;29;20636;-73
2023/09/21 01:08:54;;;;;;;1.80;0.90;;;20.70;99.90;;;;;;4956065;29;20587;-73
2023/09/21 01:11:20;;;;;;;2.00;1.00;;;20.70;99.90;;;;;;4953262;29;20662;-73
2023/09/21 01:13:47;;;;;;;2.07;1.17;;;20.70;99.90;;;;;;4937403;29;20588;-73
2023/09/21 01:16:15;;;;;;;2.23;1.10;;;20.70;99.90;;;;;;4953465;29;21638;-73
2023/09/21 01:18:41;;;;;;;2.37;0.80;;;20.70;99.90;;;;;;4935902;29;20604;-73
2023/09/21 01:21:13;;;;;;;2.47;1.10;;;20.70;99.90;;;;;;4953327;29;20595;-73
2023/09/21 01:23:45;;;;;;;1.83;1.07;;;20.70;99.90;;;;;;4936804;29;20649;-73
2023/09/21 01:26:14;;;;;;;3.70;1.00;;;20.60;99.90;;;;;;4918308;29;20620;-73
2023/09/21 01:28:40;;;;;;;2.53;1.10;;;20.70;99.90;;;;;;4935691;29;20596;-73
2023/09/21 01:31:11;;;;;;;5.97;1.20;;;20.70;99.90;;;;;;4953164;29;20584;-73
2023/09/21 01:33:38;;;;;;;1.80;1.00;;;20.60;99.90;;;;;;4952886;29;20592;-73
2023/09/21 01:36:08;;;;;;;2.17;1.10;;;20.60;99.90;;;;;;4952994;29;20635;-74
2023/09/21 01:38:37;;;;;;;1.70;0.73;;;20.60;99.90;;;;;;4936991;29;20596;-73
2023/09/21 01:41:03;;;;;;;2.10;1.17;;;20.60;99.90;;;;;;4936756;29;20648;-73
2023/09/21 01:43:29;;;;;;;2.00;1.10;;;20.60;99.90;;;;;;4952784;28;20746;-75
2023/09/21 01:45:54;;;;;;;3.10;0.90;;;20.60;99.90;;;;;;4936941;29;20699;-75
2023/09/21 01:48:20;;;;;;;1.83;0.80;;;20.60;99.90;;;;;;4936704;29;20180;-75
2023/09/21 01:50:49;;;;;;;3.60;0.97;;;20.50;99.90;;;;;;4952712;29;20199;-75
2023/09/21 01:53:19;;;;;;;2.30;1.20;;;20.50;99.90;;;;;;4938721;29;20589;-76
2023/09/21 01:55:47;;;;;;;1.77;1.00;;;20.50;99.90;;;;;;4935527;29;20705;-75
2023/09/21 01:58:14;;;;;;;2.40;1.03;;;20.50;99.90;;;;;;4936794;29;20592;-75
2023/09/21 02:00:46;;;;;;;1.90;1.10;;;20.50;99.90;;;;;;4952520;29;20687;-76
2023/09/21 02:03:13;;;;;;;2.00;1.00;;;20.50;99.90;;;;;;4936529;29;20654;-75
2023/09/21 02:05:40;;;;;;;3.00;1.10;;;20.40;99.90;;;;;;4935829;29;20690;-75
2023/09/21 02:08:07;;;;;;;2.47;0.90;;;20.40;99.90;;;;;;4952297;29;20584;-75
2023/09/21 02:10:34;;;;;;;2.10;1.20;;;20.40;99.90;;;;;;4936470;29;20600;-75
2023/09/21 02:13:02;;;;;;;2.00;1.10;;;20.30;99.90;;;;;;4936357;29;20750;-72
2023/09/21 02:15:30;;;;;;;2.83;1.23;;;20.30;99.90;;;;;;4949223;29;20624;-72
2023/09/21 02:17:56;;;;;;;4.83;1.00;;;20.30;99.90;;;;;;4936056;29;20581;-72
2023/09/21 02:20:23;;;;;;;2.80;1.17;;;20.30;99.90;;;;;;4936463;29;20927;-76
2023/09/21 02:22:51;;;;;;;2.20;0.90;;;20.20;99.90;;;;;;4936126;29;20632;-76
2023/09/21 02:25:18;;;;;;;2.53;1.20;;;20.20;99.90;;;;;;4952164;29;20616;-76
2023/09/21 02:27:46;;;;;;;1.83;0.90;;;20.20;99.90;;;;;;4936266;29;20949;-76
2023/09/21 02:30:17;;;;;;;4.00;1.20;;;20.20;99.90;;;;;;4936281;29;20655;-76
2023/09/21 02:32:50;;;;;;;3.00;1.07;;;20.20;99.90;;;;;;4952094;29;20600;-76
2023/09/21 02:35:19;;;;;;;2.00;0.90;;;20.10;99.90;;;;;;4935935;29;21211;-76
2023/09/21 02:37:46;;;;;;;1.80;1.03;;;20.10;99.90;;;;;;4953399;29;20593;-76
2023/09/21 02:40:17;;;;;;;2.23;0.97;;;20.10;99.90;;;;;;4951890;29;20660;-76
2023/09/21 02:42:44;;;;;;;2.57;1.10;;;20.10;99.90;;;;;;4951566;29;20631;-76
2023/09/21 02:45:13;;;;;;;2.17;1.10;;;20.10;99.90;;;;;;4935993;29;20639;-76
2023/09/21 02:47:43;;;;;;;2.53;1.30;;;20.00;99.90;;;;;;4951025;29;20595;-76
2023/09/21 02:50:21;;;;;;;2.47;0.93;;;20.10;99.90;;;;;;4945665;29;20729;-76
2023/09/21 02:53:06;;;;;;;2.07;1.00;;;20.00;99.90;;;;;;4945159;29;20599;-76
2023/09/21 02:55:34;;;;;;;4.37;1.30;;;20.00;99.90;;;;;;4948602;29;20636;-76
2023/09/21 02:58:09;;;;;;;1.97;1.10;;;20.00;99.90;;;;;;4935892;29;21000;-76
2023/09/21 03:00:39;;;;;;;2.50;0.97;;;20.00;99.90;;;;;;4935752;29;21036;-76
2023/09/21 03:03:07;;;;;;;1.80;0.90;;;20.00;99.90;;;;;;4927646;29;20632;-76
2023/09/21 03:05:38;;;;;;;2.70;1.10;;;20.00;99.90;;;;;;4951294;29;20649;-76
2023/09/21 03:08:07;;;;;;;2.00;1.20;;;20.00;99.90;;;;;;4935876;29;20639;-76
2023/09/21 03:10:34;;;;;;;2.10;0.80;;;20.00;99.90;;;;;;4935596;29;20588;-76
2023/09/21 03:13:01;;;;;;;2.50;0.90;;;20.00;99.90;;;;;;4951246;29;20647;-76
2023/09/21 03:15:26;;;;;;;2.07;1.03;;;19.90;99.90;;;;;;4948321;29;20731;-76
2023/09/21 03:17:53;;;;;;;2.30;1.20;;;20.00;99.90;;;;;;4950416;28;20664;-76
2023/09/21 03:20:37;;;;;;;1.97;1.07;;;19.90;99.90;;;;;;4904122;29;20192;-75
2023/09/21 03:23:05;;;;;;;1.50;0.80;;;19.90;99.90;;;;;;4935199;29;20643;-75
2023/09/21 03:25:33;;;;;;;1.90;0.90;;;19.90;99.90;;;;;;4935522;29;20650;-75
2023/09/21 03:28:15;;;;;;;2.20;1.00;;;19.90;99.90;;;;;;4935504;29;21110;-75
2023/09/21 03:30:46;;;;;;;2.30;1.20;;;19.90;99.90;;;;;;4952475;29;20588;-75
2023/09/21 03:33:12;;;;;;;2.80;1.00;;;19.90;99.90;;;;;;4935082;29;20608;-75
2023/09/21 03:35:38;;;;;;;1.90;0.87;;;19.90;99.90;;;;;;4935461;29;20620;-75
2023/09/21 03:38:18;;;;;;;3.80;1.13;;;19.90;99.90;;;;;;4935242;29;20588;-75
2023/09/21 03:40:44;;;;;;;3.10;1.33;;;19.90;99.90;;;;;;4935373;29;21847;-75
2023/09/21 03:43:12;;;;;;;2.20;1.10;;;19.80;99.90;;;;;;4935115;29;20631;-75
2023/09/21 03:45:39;;;;;;;2.17;1.00;;;19.90;99.90;;;;;;4919358;29;20623;-75
2023/09/21 03:48:08;;;;;;;2.00;0.90;;;19.90;99.90;;;;;;4952275;29;20670;-75
2023/09/21 03:50:34;;;;;;;2.73;1.00;;;19.80;99.90;;;;;;4935104;29;20585;-75
2023/09/21 03:53:04;;;;;;;3.00;1.10;;;19.80;99.90;;;;;;4935211;29;20600;-75
2023/09/21 03:55:31;;;;;;;3.27;1.10;;;19.80;99.90;;;;;;4935338;29;20632;-76
2023/09/21 03:57:57;;;;;;;2.00;1.10;;;19.80;99.90;;;;;;4935315;29;20603;-76
2023/09/21 04:00:29;;;;;;;5.53;1.23;;;19.80;99.90;;;;;;4931891;29;20593;-76
2023/09/21 04:02:58;;;;;;;2.60;1.10;;;19.80;99.90;;;;;;4941832;29;21235;-76
2023/09/21 04:05:26;;;;;;;2.77;1.23;;;19.80;99.90;;;;;;4934893;29;20643;-76
2023/09/21 04:07:52;;;;;;;2.23;1.10;;;19.80;99.90;;;;;;4919262;29;20588;-76
2023/09/21 04:10:18;;;;;;;2.60;1.10;;;19.80;99.90;;;;;;4919227;29;20592;-76
2023/09/21 04:12:44;;;;;;;2.13;1.07;;;19.80;99.90;;;;;;4952057;29;20679;-76
2023/09/21 04:15:11;;;;;;;2.10;1.13;;;19.80;99.90;;;;;;4950655;29;20224;-76
2023/09/21 04:17:41;;;;;;;1.90;1.00;;;19.80;99.90;;;;;;4931976;29;20592;-76
2023/09/21 04:20:15;;;;;;;2.50;1.50;;;19.80;99.90;;;;;;4927314;29;21997;-76
2023/09/21 04:22:42;;;;;;;4.00;0.97;;;19.80;99.90;;;;;;4951931;29;20603;-76
2023/09/21 04:25:10;;;;;;;2.27;1.20;;;19.80;99.90;;;;;;4950737;29;20639;-76
2023/09/21 04:27:39;;;;;;;2.53;1.00;;;19.80;99.90;;;;;;4918960;29;20618;-76
2023/09/21 04:30:14;;;;;;;2.03;1.10;;;19.80;99.90;;;;;;4936619;29;20588;-76
2023/09/21 04:32:45;;;;;;;3.33;1.20;;;19.80;99.90;;;;;;4954103;29;20595;-76
2023/09/21 04:35:14;;;;;;;2.30;1.00;;;19.80;99.90;;;;;;4938359;29;21207;-75
2023/09/21 04:37:42;;;;;;;3.30;1.20;;;19.80;99.90;;;;;;4949643;29;20689;-76
2023/09/21 04:40:09;;;;;;;2.00;1.10;;;19.80;99.90;;;;;;4955556;29;20579;-76
2023/09/21 04:42:38;;;;;;;2.20;1.13;;;19.80;99.90;;;;;;4937845;29;20616;-76
2023/09/21 04:45:09;;;;;;;2.43;1.00;;;19.90;99.90;;;;;;4938140;29;20744;-76
2023/09/21 04:47:37;;;;;;;2.10;1.00;;;19.80;99.90;;;;;;4938195;29;20687;-75
2023/09/21 04:50:05;;;;;;;2.50;1.20;;;19.80;99.90;;;;;;4954033;29;21055;-75
2023/09/21 04:52:32;;;;;;;4.60;1.00;;;19.90;99.90;;;;;;4953709;29;20666;-75
2023/09/21 04:54:59;;;;;;;2.20;0.90;;;19.90;99.90;;;;;;4936745;29;20651;-76
2023/09/21 04:57:27;;;;;;;2.27;0.90;;;19.90;99.90;;;;;;4953915;29;20595;-76
2023/09/21 04:59:54;;;;;;;2.37;0.90;;;19.90;99.90;;;;;;4953556;29;20709;-77
2023/09/21 05:02:19;;;;;;;3.00;1.10;;;20.00;99.90;;;;;;4953975;29;20709;-77
2023/09/21 05:04:45;;;;;;;2.20;1.20;;;20.00;99.90;;;;;;4953226;29;21227;-77
2023/09/21 05:07:14;;;;;;;1.93;0.97;;;20.00;99.90;;;;;;4955051;29;20669;-76
2023/09/21 05:09:40;;;;;;;4.90;1.10;;;20.10;99.90;;;;;;4937806;29;20594;-76
2023/09/21 05:12:06;;;;;;;2.67;1.40;;;20.10;99.90;;;;;;4937750;29;20580;-76
2023/09/21 05:14:33;;;;;;;5.20;1.30;;;20.10;99.90;;;;;;4940709;29;20615;-76
2023/09/21 05:16:59;;;;;;;2.43;1.10;;;20.10;99.90;;;;;;4954778;29;20707;-76
2023/09/21 05:19:26;;;;;;;3.83;1.10;;;20.00;99.90;;;;;;4954928;29;20680;-75
2023/09/21 05:21:56;;;;;;;2.70;1.20;;;20.10;99.90;;;;;;4954805;29;20720;-74
2023/09/21 05:24:23;;;;;;;2.47;1.10;;;20.00;99.90;;;;;;4937051;29;20643;-76
2023/09/21 05:26:49;;;;;;;2.90;1.07;;;20.00;99.90;;;;;;4954768;29;20587;-75
2023/09/21 05:29:14;;;;;;;3.00;1.20;;;20.00;99.90;;;;;;4954733;29;20592;-75
2023/09/21 05:31:40;;;;;;;3.40;1.20;;;20.00;99.90;;;;;;4954637;29;20184;-75
2023/09/21 05:34:06;;;;;;;2.70;1.57;;;20.00;99.90;;;;;;4954299;29;20659;-75
2023/09/21 05:36:31;;;;;;;2.53;1.43;;;20.10;99.90;;;;;;4938714;29;20223;-75
2023/09/21 05:39:00;;;;;;;3.27;1.40;;;20.10;99.90;;;;;;4953090;29;20180;-75
2023/09/21 05:41:27;;;;;;;3.90;1.40;;;20.10;99.90;;;;;;4953285;28;20298;-74
2023/09/21 05:43:53;;;;;;;5.67;1.30;;;20.10;99.90;;;;;;4952934;29;21195;-74
2023/09/21 05:46:19;;;;;;;3.63;1.77;;;20.20;99.90;;;;;;4954203;29;20631;-74
2023/09/21 05:48:45;;;;;;;6.90;1.60;;;20.30;99.90;;;;;;4952930;29;20367;-74
2023/09/21 05:51:12;;;;;;;3.73;1.70;;;20.30;99.90;;;;;;4952914;29;20184;-75
2023/09/21 05:53:38;;;;;;;2.97;1.70;;;20.30;99.90;;;;;;4953979;29;20997;-75
2023/09/21 05:56:04;;;;;;;2.77;1.20;;;20.40;99.90;;;;;;4952740;29;20718;-75
2023/09/21 05:58:32;;;;;;;3.23;1.50;;;20.40;99.90;;;;;;4952787;28;20180;-75
2023/09/21 06:00:59;;;;;;;4.83;1.13;;;20.50;99.90;;;;;;4952769;29;20687;-75
2023/09/21 06:03:26;;;;;;;3.53;1.40;;;20.50;99.90;;;;;;4953651;29;20635;-75
2023/09/21 06:05:52;;;;;;;5.53;1.80;;;20.50;99.90;;;;;;4953646;29;20623;-75
2023/09/21 06:08:19;;;;;;;5.57;2.10;;;20.50;99.90;;;;;;4952719;29;20596;-75
2023/09/21 06:10:46;;;;;;;4.20;1.80;;;20.60;99.90;;;;;;4936622;29;20587;-75
2023/09/21 06:13:12;;;;;;;3.20;1.40;;;20.60;99.90;;;;;;4953612;29;20607;-76
2023/09/21 06:15:48;;;;;;;6.20;1.83;;;20.60;99.90;;;;;;4953735;29;20715;-75
2023/09/21 06:18:16;;;;;;;6.13;1.33;;;20.70;99.90;;;;;;4953693;29;20599;-75
2023/09/21 06:20:43;;;;;;;3.53;1.10;;;20.80;99.90;;;;;;4936590;29;20576;-75
2023/09/21 06:23:09;;;;;;;3.03;1.40;;;20.80;99.90;;;;;;4953321;29;20663;-77
2023/09/21 06:25:35;;;;;;;3.83;1.20;;;20.90;99.90;;;;;;4953438;29;20620;-75
2023/09/21 06:28:02;;;;;;;2.27;1.10;;;21.00;99.90;;;;;;4953202;29;20594;-75
2023/09/21 06:30:27;;;;;;;3.03;1.40;;;21.10;99.90;;;;;;4953438;29;20691;-76
2023/09/21 06:32:55;;;;;;;4.53;1.40;;;21.20;99.90;;;;;;4951932;29;21199;-76
2023/09/21 06:35:26;;;;;;;2.60;1.03;;;21.30;99.90;;;;;;4951910;29;20207;-75
2023/09/21 06:37:54;;;;;;;2.53;1.00;;;21.40;99.90;;;;;;4953256;29;20595;-75
2023/09/21 06:40:26;;;;;;;3.80;1.13;;;21.50;99.90;;;;;;4953308;29;21027;-75
2023/09/21 06:42:52;;;;;;;2.67;1.20;;;21.60;99.90;;;;;;4952874;29;20639;-74
2023/09/21 06:45:18;;;;;;;1.90;1.07;;;21.70;99.90;;;;;;4953331;29;20926;-75
2023/09/21 06:47:47;;;;;;;2.90;1.20;;;21.80;99.90;;;;;;4953287;29;20596;-74
2023/09/21 06:50:13;;;;;;;2.73;1.20;;;21.90;99.90;;;;;;4951944;29;20619;-74
2023/09/21 06:52:40;;;;;;;3.40;0.97;;;22.00;99.90;;;;;;4951245;28;20588;-75
2023/09/21 06:55:06;;;;;;;6.83;1.30;;;22.00;99.90;;;;;;4951833;29;20608;-75
2023/09/21 06:57:34;;;;;;;2.50;1.40;;;22.10;99.90;;;;;;4935924;29;20592;-75
2023/09/21 07:00:01;;;;;;;2.57;1.10;;;22.20;99.90;;;;;;4951939;29;20581;-75
2023/09/21 07:02:27;;;;;;;2.80;1.40;;;22.30;99.90;;;;;;4935764;29;20588;-76
2023/09/21 07:04:53;;;;;;;3.10;1.20;;;22.40;99.90;;;;;;4951520;29;20654;-76
2023/09/21 07:07:20;;;;;;;2.87;1.20;;;22.50;99.90;;;;;;4935757;29;20262;-76
2023/09/21 07:09:46;;;;;;;2.97;1.17;;;22.60;99.90;;;;;;4935535;29;20216;-75
2023/09/21 07:12:12;;;;;;;2.17;1.00;;;22.80;99.90;;;;;;4952789;29;20679;-75
2023/09/21 07:14:39;;;;;;;2.73;1.27;;;22.90;99.90;;;;;;4952407;29;20619;-76
2023/09/21 07:17:05;;;;;;;2.40;1.10;;;23.30;99.90;;;;;;4947506;23;20681;-78
2023/09/21 07:19:32;;;;;;;2.70;1.80;;;23.60;99.90;;;;;;4933464;29;20592;-78
2023/09/21 07:21:58;;;;;;;4.43;1.40;;;24.20;99.90;;;;;;4932506;29;20676;-78
2023/09/21 07:24:24;;;;;;;5.13;1.67;;;24.70;99.90;;;;;;4938210;29;20706;-79
2023/09/21 07:26:49;;;;;;;6.13;1.77;;;24.80;99.90;;;;;;4936512;29;21195;-78
2023/09/21 07:29:17;;;;;;;2.90;1.50;;;24.90;99.90;;;;;;4916317;29;20573;-78
2023/09/21 07:31:43;;;;;;;3.70;1.30;;;25.00;99.90;;;;;;4931552;29;20267;-78
2023/09/21 07:34:09;;;;;;;2.03;1.00;;;25.00;99.90;;;;;;4933779;29;20679;-79
2023/09/21 07:36:39;;;;;;;4.30;1.80;;;24.90;99.90;;;;;;4933511;29;20953;-78
2023/09/21 07:39:09;;;;;;;2.90;1.10;;;24.90;99.90;;;;;;4916279;29;20599;-78
2023/09/21 07:41:36;;;;;;;3.00;1.33;;;25.00;99.90;;;;;;4932096;29;20596;-78
2023/09/21 07:44:03;;;;;;;2.60;1.30;;;25.40;99.90;;;;;;4931859;29;21014;-79
2023/09/21 07:46:29;;;;;;;2.80;1.30;;;25.70;99.90;;;;;;4932101;29;20590;-78
2023/09/21 07:48:55;;;;;;;3.37;0.87;;;26.10;99.90;;;;;;4933200;29;20597;-78
2023/09/21 07:51:21;;;;;;;4.93;1.17;;;26.70;99.90;;;;;;4933277;29;20596;-79
2023/09/21 07:53:47;;;;;;;2.50;0.97;;;27.10;99.90;;;;;;4932026;29;20219;-78
2023/09/21 07:56:13;;;;;;;10.37;1.87;;;27.60;99.90;;;;;;4944120;29;20184;-79
2023/09/21 07:58:39;;;;;;;4.00;1.30;;;27.90;99.90;;;;;;4935028;29;20722;-79
2023/09/21 08:01:05;;;;;;;2.67;1.23;;;27.90;99.90;;;;;;4952280;29;20679;-79
2023/09/21 08:03:31;;;;;;;3.20;1.30;;;27.80;98.60;;;;;;4952279;28;20208;-78
2023/09/21 08:05:59;;;;;;;3.57;1.60;;;27.90;98.40;;;;;;4954394;29;20173;-78
2023/09/21 08:08:25;;;;;;;4.87;1.60;;;27.80;98.30;;;;;;4955871;28;20615;-78
2023/09/21 08:10:53;;;;;;;3.20;1.67;;;27.80;98.50;;;;;;4956035;29;20941;-78
2023/09/21 08:13:24;;;;;;;5.60;1.90;;;27.70;97.60;;;;;;4956045;29;20685;-78
2023/09/21 08:15:50;;;;;;;3.60;1.40;;;27.50;96.80;;;;;;4954823;29;20680;-78
2023/09/21 08:18:16;;;;;;;3.80;1.50;;;27.40;97.70;;;;;;4955805;28;20683;-78
2023/09/21 08:20:42;;;;;;;5.33;2.17;;;27.30;97.90;;;;;;4938800;29;20216;-78
2023/09/21 08:23:08;;;;;;;2.43;1.10;;;27.10;97.20;;;;;;4951316;29;20205;-78
2023/09/21 08:25:35;;;;;;;3.03;1.13;;;26.80;97.60;;;;;;4950206;29;20177;-78
2023/09/21 08:28:05;;;;;;;3.00;1.20;;;26.60;97.30;;;;;;4954548;28;20630;-78
2023/09/21 08:30:31;;;;;;;4.63;1.00;;;26.30;97.50;;;;;;4956003;29;20572;-78
2023/09/21 08:32:58;;;;;;;4.80;1.10;;;26.20;97.80;;;;;;4938585;29;20594;-78
2023/09/21 08:35:24;;;;;;;2.47;0.90;;;26.00;97.90;;;;;;4950530;29;20669;-78
2023/09/21 08:37:50;;;;;;;2.60;1.10;;;25.80;98.20;;;;;;4935634;29;20618;-78
2023/09/21 08:40:22;;;;;;;2.93;1.10;;;25.70;98.50;;;;;;4935128;29;21223;-78
2023/09/21 08:42:53;;;;;;;2.43;1.30;;;25.60;98.60;;;;;;4936459;29;20612;-78
2023/09/21 08:45:20;;;;;;;2.23;1.33;;;25.50;98.80;;;;;;4936390;29;20595;-78
2023/09/21 08:47:48;;;;;;;2.87;1.30;;;25.40;99.10;;;;;;4936561;29;20611;-79
2023/09/21 08:50:13;;;;;;;3.80;1.10;;;25.40;99.50;;;;;;4919098;29;20593;-78
2023/09/21 08:52:45;;;;;;;5.07;1.70;;;25.40;99.90;;;;;;4934905;29;20593;-78
2023/09/21 08:55:12;;;;;;;2.57;1.33;;;25.40;99.90;;;;;;4935059;29;20626;-79
2023/09/21 08:57:38;;;;;;;3.63;1.80;;;25.60;99.90;;;;;;4913783;29;20621;-79
2023/09/21 09:00:11;;;;;;;3.87;1.20;;;26.00;99.90;;;;;;4934828;29;20584;-78
2023/09/21 09:02:37;;;;;;;12.13;1.43;;;26.50;99.90;;;;;;4935831;29;20594;-78
2023/09/21 09:05:08;;;;;;;4.17;1.40;;;26.80;99.90;;;;;;4936071;29;20621;-78
2023/09/21 09:07:41;;;;;;;5.50;1.60;;;27.00;99.90;;;;;;4934786;29;20624;-78
2023/09/21 09:10:12;;;;;;;3.03;1.30;;;26.90;98.80;;;;;;4937701;29;21116;-78
2023/09/21 09:12:39;;;;;;;3.77;1.80;;;26.80;98.50;;;;;;4950484;29;20597;-79
2023/09/21 09:15:08;;;;;;;7.10;1.73;;;26.70;98.60;;;;;;4935668;29;20612;-78
2023/09/21 09:17:35;;;;;;;2.63;1.37;;;26.70;98.50;;;;;;4940897;29;21014;-78
2023/09/21 09:20:02;;;;;;;3.33;1.10;;;26.60;98.60;;;;;;4953646;28;20695;-78
2023/09/21 09:22:31;;;;;;;2.57;1.03;;;26.50;98.50;;;;;;4955000;29;20583;-78
2023/09/21 09:25:17;;;;;;;3.73;1.17;;;26.40;98.70;;;;;;4929439;29;20643;-78
2023/09/21 09:27:45;;;;;;;2.10;1.10;;;26.30;98.80;;;;;;4935132;29;20640;-78
2023/09/21 09:30:12;;;;;;;4.90;1.40;;;26.20;98.90;;;;;;4934256;29;20604;-78
2023/09/21 09:32:41;;;;;;;2.30;1.00;;;26.20;99.20;;;;;;4934218;29;20589;-78
2023/09/21 09:35:13;;;;;;;2.13;0.93;;;26.20;99.40;;;;;;4935477;29;21222;-78
2023/09/21 09:37:44;;;;;;;3.23;1.10;;;26.20;99.50;;;;;;4918328;29;20621;-78
2023/09/21 09:40:18;;;;;;;3.07;1.03;;;26.20;99.60;;;;;;4935305;29;20581;-78
2023/09/21 09:42:45;;;;;;;2.50;0.90;;;26.20;99.60;;;;;;4935432;29;20584;-78
2023/09/21 09:45:31;;;;;;;2.50;1.50;;;26.20;99.80;;;;;;4943439;29;20591;-78
2023/09/21 09:48:01;;;;;;;6.57;1.90;;;26.20;99.80;;;;;;4918183;29;20727;-78
2023/09/21 09:50:33;;;;;;;4.97;1.40;;;26.20;99.50;;;;;;4935411;29;21039;-78
2023/09/21 09:53:05;;;;;;;3.33;1.60;;;26.10;99.40;;;;;;4933774;29;21072;-78
2023/09/21 09:55:32;;;;;;;4.47;1.20;;;25.90;99.40;;;;;;4934064;29;20976;-78
2023/09/21 09:58:00;;;;;;;2.40;1.10;;;25.90;99.60;;;;;;4935036;29;20683;-78
2023/09/21 10:00:29;;;;;;;4.10;1.43;;;25.80;99.80;;;;;;4935006;29;20585;-77
2023/09/21 10:02:57;;;;;;;2.40;1.30;;;25.80;99.90;;;;;;4950409;29;20588;-77
2023/09/21 10:05:27;;;;;;;2.17;1.27;;;25.80;99.90;;;;;;4954153;29;20794;-77
2023/09/21 10:07:59;;;;;;;2.20;1.10;;;25.80;99.90;;;;;;4955363;28;20634;-75
2023/09/21 10:10:30;;;;;;;4.33;1.67;;;25.80;99.90;;;;;;4952598;28;20592;-74
2023/09/21 10:12:57;;;;;;;3.03;1.07;;;25.90;99.90;;;;;;4936526;29;20632;-74
2023/09/21 10:15:26;;;;;;;3.43;1.10;;;26.00;99.90;;;;;;4952582;29;20619;-75
2023/09/21 10:17:57;;;;;;;2.57;1.10;;;26.00;99.90;;;;;;4953762;28;20998;-75
2023/09/21 10:20:27;;;;;;;1.77;1.00;;;25.90;99.90;;;;;;4953563;29;20595;-75
2023/09/21 10:22:54;;;;;;;2.83;1.07;;;25.90;99.90;;;;;;4936279;29;20580;-75
2023/09/21 10:25:38;;;;;;;3.20;1.00;;;25.90;99.90;;;;;;4953610;29;20671;-75
2023/09/21 10:28:35;;;;;;;2.10;1.30;;;25.80;99.90;;;;;;4952802;28;21178;-74
2023/09/21 10:31:06;;;;;;;2.00;1.00;;;25.80;99.90;;;;;;4952137;29;20588;-75
2023/09/21 10:33:51;;;;;;;3.17;1.03;;;25.80;99.90;;;;;;4953219;29;20942;-76
2023/09/21 10:36:30;;;;;;;2.03;1.20;;;25.70;99.90;;;;;;4935178;29;21059;-75
2023/09/21 10:39:22;;;;;;;3.30;1.13;;;25.80;99.90;;;;;;4934428;29;21199;-75
2023/09/21 10:41:53;;;;;;;2.73;1.30;;;25.70;99.90;;;;;;4925109;29;20740;-75
2023/09/21 10:45:11;;;;;;;2.07;1.10;;;25.80;99.90;;;;;;4932557;29;21246;-75
2023/09/21 10:47:37;;;;;;;3.17;1.30;;;25.80;99.90;;;;;;4947157;28;20624;-75
2023/09/21 10:50:06;;;;;;;1.80;1.10;;;25.90;99.90;;;;;;4932974;29;20587;-75
2023/09/21 10:52:32;;;;;;;1.73;1.17;;;26.00;99.90;;;;;;4951723;29;20610;-76
2023/09/21 10:54:59;;;;;;;3.20;1.00;;;26.00;99.90;;;;;;4944310;29;20588;-75
2023/09/21 10:57:29;;;;;;;3.30;1.23;;;26.10;99.90;;;;;;4933805;29;20976;-76
2023/09/21 10:59:58;;;;;;;2.67;1.10;;;26.20;99.90;;;;;;4941255;29;20611;-76
2023/09/21 11:02:24;;;;;;;2.80;0.80;;;26.30;99.90;;;;;;4936309;29;20977;-75
2023/09/21 11:04:52;;;;;;;3.27;1.03;;;26.40;99.90;;;;;;4935682;29;20640;-76
2023/09/21 11:07:21;;;;;;;2.73;1.00;;;26.40;99.90;;;;;;4943657;28;21197;-75
2023/09/21 11:09:48;;;;;;;2.53;1.10;;;26.50;99.90;;;;;;4938837;29;20596;-75
2023/09/21 11:12:14;;;;;;;3.83;1.20;;;26.60;99.90;;;;;;4952919;29;21165;-75
2023/09/21 11:14:42;;;;;;;3.30;1.50;;;26.70;99.90;;;;;;4944940;29;20584;-75
2023/09/21 11:17:11;;;;;;;4.13;1.00;;;26.70;99.90;;;;;;4943305;29;21284;-75
2023/09/21 11:19:41;;;;;;;3.90;1.03;;;26.70;99.20;;;;;;4932604;29;20593;-76
2023/09/21 11:22:08;;;;;;;2.70;1.03;;;26.70;99.30;;;;;;4932638;29;20620;-75
2023/09/21 11:24:36;;;;;;;1.90;0.90;;;26.70;99.40;;;;;;4921700;29;20644;-75
2023/09/21 11:27:09;;;;;;;2.77;1.20;;;26.80;99.50;;;;;;4948193;28;20663;-75
2023/09/21 11:29:35;;;;;;;1.80;0.90;;;26.90;99.60;;;;;;4916628;29;20685;-75
2023/09/21 11:32:01;;;;;;;1.90;0.90;;;27.20;99.70;;;;;;4932459;29;20597;-75
2023/09/21 11:34:29;;;;;;;3.10;1.00;;;27.30;99.20;;;;;;4916278;29;20999;-75
2023/09/21 11:36:55;;;;;;;2.40;1.00;;;27.30;98.90;;;;;;4932227;29;20681;-75
2023/09/21 11:39:28;;;;;;;1.87;1.07;;;27.30;98.60;;;;;;4944116;28;21149;-75
2023/09/21 11:41:55;;;;;;;4.00;0.87;;;27.20;98.50;;;;;;4920341;29;20585;-76
2023/09/21 11:44:20;;;;;;;2.53;1.00;;;27.20;98.50;;;;;;4947499;29;20646;-75
2023/09/21 11:46:48;;;;;;;4.23;1.40;;;27.20;98.30;;;;;;4950759;29;20596;-75
2023/09/21 11:49:14;;;;;;;3.33;1.20;;;27.10;98.20;;;;;;4938531;29;20236;-75
2023/09/21 11:51:43;;;;;;;3.00;1.33;;;26.90;98.10;;;;;;4956457;29;20588;-75
2023/09/21 11:54:11;;;;;;;2.20;1.10;;;26.80;98.00;;;;;;4938872;29;20612;-74
2023/09/21 11:56:38;;;;;;;2.60;1.20;;;26.70;98.10;;;;;;4954967;28;20592;-74
2023/09/21 11:59:06;;;;;;;5.63;0.97;;;26.60;98.20;;;;;;4948390;29;20596;-75
2023/09/21 12:01:34;;;;;;;2.57;1.07;;;26.50;98.10;;;;;;4936939;29;20647;-75
2023/09/21 12:04:03;;;;;;;4.07;1.33;;;26.40;98.30;;;;;;4935637;29;20684;-75
2023/09/21 12:06:32;;;;;;;2.27;1.00;;;26.40;98.40;;;;;;4936973;29;20577;-75
2023/09/21 12:08:58;;;;;;;4.53;1.27;;;26.30;98.40;;;;;;4950927;29;21343;-75
2023/09/21 12:11:24;;;;;;;3.10;1.03;;;26.20;98.30;;;;;;4947460;29;20606;-75
2023/09/21 12:13:50;;;;;;;4.23;1.40;;;26.10;98.30;;;;;;4956166;29;21009;-75
2023/09/21 12:16:16;;;;;;;4.90;1.33;;;26.00;98.30;;;;;;4947524;29;20596;-75
2023/09/21 12:18:43;;;;;;;2.00;1.07;;;25.90;98.40;;;;;;4955837;28;20212;-78
2023/09/21 12:21:09;;;;;;;4.30;1.20;;;25.90;98.60;;;;;;4956144;29;20603;-78
2023/09/21 12:23:35;;;;;;;3.13;1.20;;;25.80;98.60;;;;;;4952412;29;20632;-79
2023/09/21 12:26:00;;;;;;;4.37;2.40;;;25.70;98.70;;;;;;4935946;29;20588;-79
2023/09/21 12:28:27;;;;;;;6.00;1.50;;;25.60;98.60;;;;;;4947653;29;20287;-78
2023/09/21 12:30:54;;;;;;;4.17;1.70;;;25.60;98.70;;;;;;4952051;29;20169;-79
2023/09/21 12:33:21;;;;;;;3.93;1.73;;;25.50;98.80;;;;;;4936585;29;21030;-78
2023/09/21 12:35:46;;;;;;;2.70;0.97;;;25.40;98.90;;;;;;4950947;28;20603;-78
2023/09/21 12:38:13;;;;;;;2.30;1.27;;;25.40;99.00;;;;;;4953677;28;20628;-79
2023/09/21 12:40:39;;;;;;;3.37;1.20;;;25.30;99.20;;;;;;4936874;29;20193;-79
2023/09/21 12:43:09;;;;;;;6.03;1.40;;;25.30;99.20;;;;;;4935257;29;21003;-78
2023/09/21 12:45:35;;;;;;;2.83;1.87;;;25.30;99.30;;;;;;4936742;29;20934;-78
2023/09/21 12:48:02;;;;;;;3.30;1.83;;;25.30;99.40;;;;;;4919253;29;20621;-78
2023/09/21 12:50:28;;;;;;;2.90;1.60;;;25.30;99.50;;;;;;4934555;29;20185;-79
2023/09/21 12:52:54;;;;;;;3.30;1.10;;;25.30;99.50;;;;;;4941021;29;20592;-79